createdAt,value
2023-05-24T00:01:04.932Z,102589.28
2023-05-24T00:03:50.728Z,102585.69
2023-05-24T00:06:37.365Z,102596.00
2023-05-24T00:09:23.093Z,102594.19
2023-05-24T00:12:08.720Z,102583.69
2023-05-24T00:14:54.261Z,102586.22
2023-05-24T00:17:42.888Z,102581.72
2023-05-24T00:20:28.751Z,102587.69
2023-05-24T00:23:14.228Z,102584.97
2023-05-24T00:25:59.881Z,102586.56
2023-05-24T00:28:45.490Z,102590.75
2023-05-24T00:31:30.986Z,102574.06
2023-05-24T00:34:16.410Z,102578.28
2023-05-24T00:37:03.693Z,102581.53
2023-05-24T00:39:49.127Z,102583.16
2023-05-24T00:42:35.048Z,102583.00
2023-05-24T00:45:20.485Z,102579.34
2023-05-24T00:48:06.360Z,102580.97
2023-05-24T00:50:52.901Z,102577.16
2023-05-24T00:53:39.306Z,102577.84
2023-05-24T00:56:26.812Z,102581.06
2023-05-24T00:59:12.551Z,102575.50
2023-05-24T01:01:58.259Z,102567.38
2023-05-24T01:04:44.653Z,102566.75
2023-05-24T01:07:37.979Z,102577.81
2023-05-24T01:10:39.605Z,102569.19
2023-05-24T01:13:54.559Z,102570.38
2023-05-24T01:16:51.936Z,102574.88
2023-05-24T01:20:16.247Z,102567.19
2023-05-24T01:23:16.252Z,102572.47
2023-05-24T01:26:38.207Z,102559.53
2023-05-24T01:29:24.359Z,102565.59
2023-05-24T01:32:10.523Z,102570.72
2023-05-24T01:34:58.267Z,102567.19
2023-05-24T01:37:43.522Z,102557.47
2023-05-24T01:40:29.055Z,102565.19
2023-05-24T01:43:17.703Z,102563.38
2023-05-24T01:46:19.670Z,102555.41
2023-05-24T01:49:21.176Z,102564.88
2023-05-24T01:52:13.217Z,102556.94
2023-05-24T01:55:01.139Z,102564.59
2023-05-24T01:57:50.833Z,102563.59
2023-05-24T02:00:37.992Z,102560.03
2023-05-24T02:03:23.765Z,102558.22
2023-05-24T02:06:10.937Z,102564.19
2023-05-24T02:08:58.412Z,102566.66
2023-05-24T02:11:43.910Z,102573.44
2023-05-24T02:14:29.349Z,102574.22
2023-05-24T02:17:14.654Z,102570.63
2023-05-24T02:20:00.741Z,102572.00
2023-05-24T02:22:46.865Z,102564.53
2023-05-24T02:25:33.312Z,102566.53
2023-05-24T02:28:19.062Z,102566.91
2023-05-24T02:31:05.035Z,102566.59
2023-05-24T02:33:50.438Z,102571.75
2023-05-24T02:36:36.496Z,102568.03
2023-05-24T02:39:22.034Z,102560.00
2023-05-24T02:42:08.913Z,102577.03
2023-05-24T02:44:54.083Z,102577.81
2023-05-24T02:47:39.405Z,102583.00
2023-05-24T02:50:24.900Z,102586.38
2023-05-24T02:53:10.420Z,102589.44
2023-05-24T02:55:56.383Z,102593.22
2023-05-24T02:58:41.691Z,102585.47
2023-05-24T03:01:27.619Z,102587.38
2023-05-24T03:04:15.531Z,102588.34
2023-05-24T03:07:01.637Z,102588.44
2023-05-24T03:09:46.953Z,102599.75
2023-05-24T03:12:32.942Z,102594.63
2023-05-24T03:15:18.358Z,102597.22
2023-05-24T03:18:04.832Z,102607.72
2023-05-24T03:20:51.123Z,102601.75
2023-05-24T03:23:36.800Z,102608.63
2023-05-24T03:26:23.558Z,102595.56
2023-05-24T03:29:09.348Z,102593.84
2023-05-24T03:31:58.318Z,102599.97
2023-05-24T03:34:44.030Z,102592.09
2023-05-24T03:37:29.970Z,102592.16
2023-05-24T03:40:15.916Z,102592.97
2023-05-24T03:43:15.686Z,102586.75
2023-05-24T03:46:05.840Z,102593.66
2023-05-24T03:48:51.161Z,102605.84
2023-05-24T03:51:37.222Z,102608.38
2023-05-24T03:54:22.795Z,102604.72
2023-05-24T03:57:09.224Z,102615.88
2023-05-24T03:59:54.483Z,102602.88
2023-05-24T04:02:41.480Z,102616.69
2023-05-24T04:05:29.901Z,102623.59
2023-05-24T04:08:16.547Z,102617.47
2023-05-24T04:11:02.329Z,102623.53
2023-05-24T04:13:47.956Z,102618.28
2023-05-24T04:16:39.664Z,102620.66
2023-05-24T04:19:25.399Z,102622.31
2023-05-24T04:22:11.154Z,102622.19
2023-05-24T04:24:56.647Z,102621.31
2023-05-24T04:27:42.067Z,102630.78
2023-05-24T04:30:30.264Z,102624.69
2023-05-24T04:33:17.011Z,102639.41
2023-05-24T04:36:02.806Z,102642.88
2023-05-24T04:38:48.634Z,102652.56
2023-05-24T04:41:36.129Z,102653.66
2023-05-24T04:44:21.556Z,102647.69
2023-05-24T04:47:07.812Z,102649.50
2023-05-24T04:49:53.751Z,102651.34
2023-05-24T04:52:39.388Z,102649.69
2023-05-24T04:55:24.817Z,102649.81
2023-05-24T04:58:10.807Z,102655.88
2023-05-24T05:00:56.786Z,102661.19
2023-05-24T05:03:42.386Z,102660.47
2023-05-24T05:06:27.630Z,102662.28
2023-05-24T05:09:14.872Z,102671.09
2023-05-24T05:12:00.396Z,102667.00
2023-05-24T05:14:45.915Z,102655.03
2023-05-24T05:17:31.183Z,102660.44
2023-05-24T05:20:17.141Z,102659.78
2023-05-24T05:23:03.314Z,102659.16
2023-05-24T05:25:48.845Z,102658.41
2023-05-24T05:28:34.261Z,102667.28
2023-05-24T05:31:19.628Z,102670.88
2023-05-24T05:34:05.197Z,102669.22
2023-05-24T05:36:51.064Z,102677.25
2023-05-24T05:39:36.205Z,102668.66
2023-05-24T05:42:21.639Z,102672.25
2023-05-24T05:45:07.738Z,102678.56
2023-05-24T05:47:53.190Z,102678.66
2023-05-24T05:50:38.503Z,102685.75
2023-05-24T05:53:25.190Z,102685.09
2023-05-24T05:56:10.862Z,102682.63
2023-05-24T05:58:56.158Z,102690.59
2023-05-24T06:01:42.067Z,102684.72
2023-05-24T06:04:27.573Z,102679.72
2023-05-24T06:07:12.868Z,102687.59
2023-05-24T06:09:58.305Z,102680.75
2023-05-24T06:12:43.724Z,102673.88
2023-05-24T06:15:29.571Z,102679.25
2023-05-24T06:18:15.536Z,102680.25
2023-05-24T06:21:01.026Z,102675.22
2023-05-24T06:23:46.321Z,102673.59
2023-05-24T06:26:31.627Z,102670.34
2023-05-24T06:29:19.737Z,102677.38
2023-05-24T06:32:05.836Z,102672.31
2023-05-24T06:34:51.330Z,102674.97
2023-05-24T06:37:38.705Z,102667.13
2023-05-24T06:40:24.298Z,102669.84
2023-05-24T06:43:09.527Z,102670.84
2023-05-24T06:45:57.849Z,102673.63
2023-05-24T06:48:43.345Z,102674.53
2023-05-24T06:51:29.258Z,102670.41
2023-05-24T06:54:14.861Z,102685.38
2023-05-24T06:57:00.288Z,102678.66
2023-05-24T06:59:45.689Z,102671.06
2023-05-24T07:02:31.606Z,102666.94
2023-05-24T07:05:17.210Z,102671.50
2023-05-24T07:08:02.725Z,102665.47
2023-05-24T07:10:48.048Z,102673.47
2023-05-24T07:13:34.106Z,102674.47
2023-05-24T07:16:19.717Z,102682.47
2023-05-24T07:19:05.599Z,102681.78
2023-05-24T07:21:51.409Z,102679.41
2023-05-24T07:24:37.145Z,102681.34
2023-05-24T07:27:23.210Z,102682.47
2023-05-24T07:30:19.756Z,102679.22
2023-05-24T07:33:09.358Z,102685.53
2023-05-24T07:35:54.830Z,102689.28
2023-05-24T07:38:40.271Z,102679.94
2023-05-24T07:41:29.433Z,102681.97
2023-05-24T07:44:15.840Z,102686.50
2023-05-24T07:47:02.739Z,102691.28
2023-05-24T07:49:48.196Z,102686.50
2023-05-24T07:52:33.601Z,102685.84
2023-05-24T07:55:18.842Z,102693.88
2023-05-24T07:58:04.231Z,102694.16
2023-05-24T08:00:49.663Z,102687.56
2023-05-24T08:03:35.221Z,102693.19
2023-05-24T08:06:21.174Z,102695.03
2023-05-24T08:09:08.432Z,102698.69
2023-05-24T08:11:53.871Z,102698.44
2023-05-24T08:14:39.448Z,102695.88
2023-05-24T08:17:25.088Z,102696.53
2023-05-24T08:20:14.426Z,102694.16
2023-05-24T08:22:59.973Z,102696.25
2023-05-24T08:25:45.546Z,102693.91
2023-05-24T08:28:31.221Z,102687.84
2023-05-24T08:31:17.217Z,102688.09
2023-05-24T08:34:03.649Z,102681.34
2023-05-24T08:36:49.316Z,102687.34
2023-05-24T08:39:34.883Z,102688.25
2023-05-24T08:42:21.840Z,102696.91
2023-05-24T08:45:14.608Z,102703.06
2023-05-24T08:48:01.019Z,102699.78
2023-05-24T08:50:47.318Z,102704.97
2023-05-24T08:53:35.846Z,102697.19
2023-05-24T08:56:22.216Z,102694.41
2023-05-24T08:59:09.143Z,102685.53
2023-05-24T09:01:55.616Z,102683.63
2023-05-24T09:04:42.040Z,102677.78
2023-05-24T09:07:28.323Z,102683.53
2023-05-24T09:10:15.828Z,102687.25
2023-05-24T09:13:04.569Z,102681.97
2023-05-24T09:15:50.172Z,102689.75
2023-05-24T09:18:35.764Z,102689.97
2023-05-24T09:21:22.414Z,102685.72
2023-05-24T09:24:09.500Z,102674.56
2023-05-24T09:26:54.816Z,102684.09
2023-05-24T09:29:41.552Z,102671.06
2023-05-24T09:32:28.876Z,102674.69
2023-05-24T09:35:14.301Z,102685.91
2023-05-24T09:38:00.389Z,102678.03
2023-05-24T09:40:47.071Z,102672.88
2023-05-24T09:43:34.860Z,102680.06
2023-05-24T09:46:21.838Z,102673.19
2023-05-24T09:49:08.239Z,102670.53
2023-05-24T09:51:54.126Z,102668.84
2023-05-24T09:54:41.936Z,102675.25
2023-05-24T09:57:28.304Z,102667.72
2023-05-24T10:00:16.594Z,102664.41
2023-05-24T10:03:04.762Z,102672.47
2023-05-24T10:05:51.878Z,102672.38
2023-05-24T10:08:37.536Z,102667.16
2023-05-24T10:11:23.031Z,102676.75
2023-05-24T10:14:09.994Z,102667.09
2023-05-24T10:16:55.940Z,102667.13
2023-05-24T10:19:42.125Z,102657.63
2023-05-24T10:22:28.286Z,102663.06
2023-05-24T10:25:21.709Z,102663.97
2023-05-24T10:28:12.996Z,102671.66
2023-05-24T10:31:15.202Z,102675.84
2023-05-24T10:34:07.759Z,102671.25
2023-05-24T10:36:54.749Z,102669.41
2023-05-24T10:39:42.132Z,102670.28
2023-05-24T10:42:27.470Z,102672.84
2023-05-24T10:45:25.437Z,102678.94
2023-05-24T10:48:14.041Z,102685.13
2023-05-24T10:51:02.160Z,102677.38
2023-05-24T10:53:50.349Z,102669.41
2023-05-24T10:56:44.156Z,102669.41
2023-05-24T10:59:37.552Z,102674.69
2023-05-24T11:02:28.562Z,102676.28
2023-05-24T11:05:14.573Z,102672.94
2023-05-24T11:08:01.412Z,102664.53
2023-05-24T11:10:47.672Z,102656.97
2023-05-24T11:13:33.932Z,102659.75
2023-05-24T11:16:39.520Z,102660.88
2023-05-24T11:19:33.262Z,102654.78
2023-05-24T11:22:21.477Z,102659.28
2023-05-24T11:25:09.160Z,102654.97
2023-05-24T11:27:54.732Z,102656.56
2023-05-24T11:30:47.296Z,102654.81
2023-05-24T11:33:33.411Z,102664.69
2023-05-24T11:36:20.724Z,102658.78
2023-05-24T11:39:09.488Z,102660.63
2023-05-24T11:41:55.200Z,102658.06
2023-05-24T11:44:40.508Z,102658.09
2023-05-24T11:47:26.310Z,102654.56
2023-05-24T11:50:16.745Z,102660.69
2023-05-24T11:53:05.368Z,102655.38
2023-05-24T11:55:51.558Z,102661.59
2023-05-24T11:58:50.259Z,102653.66
2023-05-24T12:01:36.136Z,102660.75
2023-05-24T12:04:21.779Z,102660.72
2023-05-24T12:07:12.361Z,102653.69
2023-05-24T12:09:58.672Z,102654.50
2023-05-24T12:12:46.204Z,102647.47
2023-05-24T12:15:32.256Z,102651.88
2023-05-24T12:18:21.218Z,102642.22
2023-05-24T12:21:13.154Z,102641.34
2023-05-24T12:24:05.070Z,102646.59
2023-05-24T12:26:50.978Z,102635.06
2023-05-24T12:29:41.926Z,102644.53
2023-05-24T12:32:27.688Z,102631.19
2023-05-24T12:35:13.679Z,102625.81
2023-05-24T12:38:00.287Z,102635.59
2023-05-24T12:40:59.772Z,102626.84
2023-05-24T12:43:54.613Z,102630.31
2023-05-24T12:46:40.342Z,102631.91
2023-05-24T12:49:27.021Z,102620.09
2023-05-24T12:52:13.252Z,102625.94
2023-05-24T12:54:58.665Z,102620.78
2023-05-24T12:57:44.997Z,102635.69
2023-05-24T13:00:30.940Z,102627.03
2023-05-24T13:03:16.625Z,102624.78
2023-05-24T13:06:02.563Z,102626.56
2023-05-24T13:08:48.083Z,102628.56
2023-05-24T13:11:33.866Z,102642.22
2023-05-24T13:14:20.020Z,102630.31
2023-05-24T13:17:06.561Z,102634.63
2023-05-24T13:19:52.005Z,102637.19
2023-05-24T13:22:39.355Z,102628.44
2023-05-24T13:25:24.903Z,102641.53
2023-05-24T13:28:11.045Z,102645.44
2023-05-24T13:30:56.353Z,102641.28
2023-05-24T13:33:41.843Z,102637.81
2023-05-24T13:36:27.863Z,102642.13
2023-05-24T13:39:16.231Z,102646.31
2023-05-24T13:42:03.052Z,102635.72
2023-05-24T13:44:48.581Z,102644.78
2023-05-24T13:47:40.043Z,102644.41
2023-05-24T13:50:26.968Z,102643.69
2023-05-24T13:53:12.564Z,102640.13
2023-05-24T13:55:58.136Z,102642.63
2023-05-24T13:58:43.985Z,102651.47
2023-05-24T14:01:30.527Z,102643.59
2023-05-24T14:04:17.052Z,102653.38
2023-05-24T14:07:03.045Z,102645.53
2023-05-24T14:09:48.648Z,102646.41
2023-05-24T14:12:34.025Z,102638.53
2023-05-24T14:15:19.435Z,102645.63
2023-05-24T14:18:08.549Z,102644.81
2023-05-24T14:20:54.411Z,102650.09
2023-05-24T14:23:39.820Z,102644.84
2023-05-24T14:26:25.505Z,102638.66
2023-05-24T14:29:11.055Z,102648.34
2023-05-24T14:31:57.048Z,102658.97
2023-05-24T14:34:42.663Z,102657.19
2023-05-24T14:37:28.046Z,102651.06
2023-05-24T14:40:13.938Z,102662.47
2023-05-24T14:43:00.848Z,102661.59
2023-05-24T14:45:46.943Z,102660.72
2023-05-24T14:48:33.093Z,102668.66
2023-05-24T14:51:19.414Z,102671.28
2023-05-24T14:54:05.112Z,102667.72
2023-05-24T14:56:50.655Z,102670.38
2023-05-24T14:59:36.322Z,102670.34
2023-05-24T15:02:21.910Z,102667.72
2023-05-24T15:05:08.202Z,102666.81
2023-05-24T15:07:53.452Z,102670.34
2023-05-24T15:10:44.476Z,102662.47
2023-05-24T15:13:31.243Z,102666.00
2023-05-24T15:16:16.637Z,102667.75
2023-05-24T15:19:02.369Z,102667.78
2023-05-24T15:21:47.793Z,102673.03
2023-05-24T15:24:33.422Z,102664.25
2023-05-24T15:27:18.977Z,102669.50
2023-05-24T15:30:04.923Z,102669.50
2023-05-24T15:32:50.373Z,102673.03
2023-05-24T15:35:36.511Z,102673.00
2023-05-24T15:38:22.793Z,102677.44
2023-05-24T15:41:09.539Z,102680.94
2023-05-24T15:43:55.392Z,102680.06
2023-05-24T15:46:41.410Z,102684.47
2023-05-24T15:49:27.337Z,102679.16
2023-05-24T15:52:12.992Z,102684.34
2023-05-24T15:54:58.192Z,102688.69
2023-05-24T15:57:43.565Z,102685.00
2023-05-24T16:00:34.636Z,102681.56
2023-05-24T16:03:20.493Z,102680.72
2023-05-24T16:06:07.117Z,102686.00
2023-05-24T16:08:52.574Z,102693.09
2023-05-24T16:11:37.863Z,102697.44
2023-05-24T16:14:23.395Z,102689.41
2023-05-24T16:17:09.073Z,102691.22
2023-05-24T16:19:54.955Z,102690.28
2023-05-24T16:22:48.824Z,102690.25
2023-05-24T16:25:34.320Z,102690.13
2023-05-24T16:28:24.314Z,102681.16
2023-05-24T16:31:09.662Z,102686.47
2023-05-24T16:33:55.070Z,102681.16
2023-05-24T16:36:41.028Z,102683.91
2023-05-24T16:39:27.171Z,102682.16
2023-05-24T16:42:12.745Z,102675.03
2023-05-24T16:44:57.980Z,102681.94
2023-05-24T16:47:43.443Z,102688.03
2023-05-24T16:50:29.664Z,102683.59
2023-05-24T16:53:15.088Z,102680.09
2023-05-24T16:56:00.767Z,102677.47
2023-05-24T16:58:46.251Z,102682.59
2023-05-24T17:01:32.038Z,102669.41
2023-05-24T17:04:19.031Z,102675.53
2023-05-24T17:07:04.499Z,102680.88
2023-05-24T17:09:51.280Z,102680.78
2023-05-24T17:12:36.935Z,102674.56
2023-05-24T17:15:22.384Z,102679.84
2023-05-24T17:18:08.282Z,102677.25
2023-05-24T17:20:56.237Z,102681.69
2023-05-24T17:23:41.916Z,102688.66
2023-05-24T17:26:27.889Z,102684.19
2023-05-24T17:29:13.227Z,102688.63
2023-05-24T17:31:59.040Z,102683.34
2023-05-24T17:34:45.838Z,102677.94
2023-05-24T17:37:31.373Z,102680.63
2023-05-24T17:40:17.079Z,102674.44
2023-05-24T17:43:03.322Z,102683.28
2023-05-24T17:45:49.048Z,102679.03
2023-05-24T17:48:39.361Z,102673.00
2023-05-24T17:51:24.853Z,102673.97
2023-05-24T17:54:10.176Z,102674.72
2023-05-24T17:56:55.622Z,102681.59
2023-05-24T17:59:41.111Z,102675.50
2023-05-24T18:02:26.629Z,102676.44
2023-05-24T18:05:12.348Z,102685.22
2023-05-24T18:07:57.707Z,102680.78
2023-05-24T18:10:43.082Z,102693.09
2023-05-24T18:13:28.406Z,102690.44
2023-05-24T18:16:14.186Z,102684.22
2023-05-24T18:18:59.654Z,102684.16
2023-05-24T18:21:45.243Z,102686.81
2023-05-24T18:24:30.717Z,102681.53
2023-05-24T18:27:15.966Z,102688.53
2023-05-24T18:30:02.154Z,102687.59
2023-05-24T18:33:03.614Z,102687.53
2023-05-24T18:35:50.814Z,102688.38
2023-05-24T18:38:37.489Z,102690.13
2023-05-24T18:41:22.703Z,102684.03
2023-05-24T18:44:08.322Z,102698.06
2023-05-24T18:46:56.371Z,102693.69
2023-05-24T18:49:42.521Z,102698.09
2023-05-24T18:52:28.142Z,102695.41
2023-05-24T18:55:14.355Z,102699.75
2023-05-24T18:57:59.923Z,102697.94
2023-05-24T19:00:45.400Z,102695.28
2023-05-24T19:03:30.894Z,102697.03
2023-05-24T19:06:16.778Z,102703.19
2023-05-24T19:09:02.749Z,102694.38
2023-05-24T19:11:49.359Z,102697.00
2023-05-24T19:14:35.013Z,102702.16
2023-05-24T19:17:20.418Z,102703.06
2023-05-24T19:20:07.324Z,102703.91
2023-05-24T19:22:52.980Z,102700.41
2023-05-24T19:25:42.221Z,102699.50
2023-05-24T19:28:27.890Z,102702.16
2023-05-24T19:31:13.295Z,102700.41
2023-05-24T19:34:00.527Z,102699.47
2023-05-24T19:36:46.325Z,102709.00
2023-05-24T19:39:31.838Z,102700.22
2023-05-24T19:42:17.152Z,102701.06
2023-05-24T19:45:02.634Z,102708.94
2023-05-24T19:47:48.282Z,102706.28
2023-05-24T19:50:33.584Z,102705.41
2023-05-24T19:53:18.932Z,102705.41
2023-05-24T19:56:04.555Z,102708.03
2023-05-24T19:58:50.701Z,102708.88
2023-05-24T20:01:36.168Z,102713.25
2023-05-24T20:04:22.056Z,102714.97
2023-05-24T20:07:11.119Z,102715.81
2023-05-24T20:09:56.587Z,102724.56
2023-05-24T20:12:42.816Z,102719.31
2023-05-24T20:15:28.516Z,102727.16
2023-05-24T20:18:14.182Z,102723.63
2023-05-24T20:21:00.029Z,102729.72
2023-05-24T20:23:45.439Z,102738.50
2023-05-24T20:26:33.405Z,102747.22
2023-05-24T20:29:19.060Z,102741.94
2023-05-24T20:32:04.890Z,102737.56
2023-05-24T20:34:50.202Z,102740.13
2023-05-24T20:37:36.409Z,102735.72
2023-05-24T20:40:27.075Z,102741.84
2023-05-24T20:43:12.551Z,102744.47
2023-05-24T20:45:58.292Z,102747.91
2023-05-24T20:48:43.807Z,102752.22
2023-05-24T20:51:29.295Z,102753.13
2023-05-24T20:54:14.674Z,102752.22
2023-05-24T20:56:59.974Z,102763.59
2023-05-24T20:59:45.444Z,102766.22
2023-05-24T21:02:31.327Z,102753.94
2023-05-24T21:05:16.768Z,102760.91
2023-05-24T21:08:05.412Z,102773.97
2023-05-24T21:10:51.066Z,102765.22
2023-05-24T21:13:36.320Z,102766.09
2023-05-24T21:16:21.697Z,102771.31
2023-05-24T21:19:07.206Z,102772.16
2023-05-24T21:21:52.709Z,102776.50
2023-05-24T21:24:38.233Z,102775.56
2023-05-24T21:27:23.948Z,102779.09
2023-05-24T21:30:10.018Z,102779.09
2023-05-24T21:32:55.456Z,102784.34
2023-05-24T21:35:40.840Z,102784.34
2023-05-24T21:38:26.560Z,102782.56
2023-05-24T21:41:11.956Z,102790.41
2023-05-24T21:43:57.621Z,102785.13
2023-05-24T21:46:42.806Z,102788.56
2023-05-24T21:49:28.227Z,102790.31
2023-05-24T21:52:13.633Z,102786.78
2023-05-24T21:54:59.289Z,102783.25
2023-05-24T21:57:44.930Z,102785.88
2023-05-24T22:00:30.737Z,102780.63
2023-05-24T22:03:16.957Z,102787.56
2023-05-24T22:06:02.514Z,102782.28
2023-05-24T22:08:47.890Z,102787.53
2023-05-24T22:11:35.213Z,102791.88
2023-05-24T22:14:20.581Z,102787.44
2023-05-24T22:17:05.977Z,102782.13
2023-05-24T22:19:53.231Z,102786.44
2023-05-24T22:22:48.344Z,102788.19
2023-05-24T22:25:33.515Z,102788.16
2023-05-24T22:28:20.185Z,102800.41
2023-05-24T22:31:05.712Z,102790.72
2023-05-24T22:33:51.344Z,102787.19
2023-05-24T22:36:38.915Z,102798.56
2023-05-24T22:39:24.631Z,102794.97
2023-05-24T22:42:10.391Z,102799.28
2023-05-24T22:44:56.077Z,102801.91
2023-05-24T22:47:41.431Z,102799.19
2023-05-24T22:50:27.478Z,102809.69
2023-05-24T22:53:19.760Z,102799.13
2023-05-24T22:56:05.116Z,102812.22
2023-05-24T22:58:50.479Z,102810.41
2023-05-24T23:01:36.140Z,102806.00
2023-05-24T23:04:21.931Z,102812.03
2023-05-24T23:07:07.470Z,102811.94
2023-05-24T23:09:53.496Z,102814.47
2023-05-24T23:12:42.418Z,102814.44
2023-05-24T23:15:29.037Z,102821.38
2023-05-24T23:18:16.394Z,102820.53
2023-05-24T23:21:03.104Z,102818.72
2023-05-24T23:23:49.340Z,102822.13
2023-05-24T23:26:37.799Z,102821.09
2023-05-24T23:29:23.258Z,102816.59
2023-05-24T23:32:09.465Z,102820.13
2023-05-24T23:34:55.237Z,102815.72
2023-05-24T23:37:40.484Z,102820.00
2023-05-24T23:40:28.680Z,102810.38
2023-05-24T23:43:14.682Z,102821.66
2023-05-24T23:46:00.285Z,102821.69
2023-05-24T23:48:46.086Z,102819.03
2023-05-24T23:51:33.560Z,102815.59
2023-05-24T23:54:19.379Z,102821.75
2023-05-24T23:57:07.626Z,102822.63
2023-05-24T23:59:54.093Z,102827.03
